createdAt,value
2023-01-12T00:01:34.182Z,83.49
2023-01-12T00:04:03.056Z,83.74
2023-01-12T00:06:32.232Z,83.89
2023-01-12T00:08:59.711Z,83.84
2023-01-12T00:11:26.362Z,83.82
2023-01-12T00:13:53.008Z,83.47
2023-01-12T00:16:35.278Z,83.69
2023-01-12T00:19:21.620Z,83.66
2023-01-12T00:21:58.960Z,83.32
2023-01-12T00:24:31.425Z,83.41
2023-01-12T00:26:59.815Z,83.30
2023-01-12T00:29:27.593Z,83.49
2023-01-12T00:31:56.239Z,83.46
2023-01-12T00:34:23.915Z,83.85
2023-01-12T00:36:51.144Z,83.88
2023-01-12T00:39:18.043Z,83.52
2023-01-12T00:42:03.724Z,83.60
2023-01-12T00:44:49.535Z,83.23
2023-01-12T00:47:17.891Z,82.90
2023-01-12T00:49:45.271Z,83.43
2023-01-12T00:52:25.002Z,83.32
2023-01-12T00:54:56.399Z,83.31
2023-01-12T00:57:23.004Z,83.14
2023-01-12T00:59:49.618Z,83.20
2023-01-12T01:02:16.431Z,82.81
2023-01-12T01:04:43.179Z,83.02
2023-01-12T01:07:10.072Z,82.85
2023-01-12T01:09:36.694Z,82.96
2023-01-12T01:12:03.458Z,82.61
2023-01-12T01:14:30.164Z,82.75
2023-01-12T01:16:56.866Z,83.17
2023-01-12T01:19:23.815Z,82.79
2023-01-12T01:21:50.491Z,82.35
2023-01-12T01:24:17.225Z,81.94
2023-01-12T01:26:43.926Z,81.63
2023-01-12T01:29:11.009Z,81.82
2023-01-12T01:31:37.813Z,82.10
2023-01-12T01:34:04.491Z,82.22
2023-01-12T01:36:31.377Z,81.94
2023-01-12T01:38:58.408Z,81.92
2023-01-12T01:41:29.028Z,81.87
2023-01-12T01:43:59.657Z,81.72
2023-01-12T01:46:29.312Z,82.24
2023-01-12T01:48:57.429Z,81.97
2023-01-12T01:51:24.074Z,82.18
2023-01-12T01:53:51.009Z,82.33
2023-01-12T01:56:27.713Z,82.59
2023-01-12T01:59:03.264Z,82.52
2023-01-12T02:01:30.130Z,82.42
2023-01-12T02:03:57.776Z,81.78
2023-01-12T02:06:26.203Z,82.38
2023-01-12T02:09:15.232Z,81.92
2023-01-12T02:12:01.570Z,82.05
2023-01-12T02:14:46.687Z,81.63
2023-01-12T02:17:21.676Z,80.92
2023-01-12T02:20:19.842Z,80.10
2023-01-12T02:23:05.238Z,80.38
2023-01-12T02:26:06.933Z,80.51
2023-01-12T02:29:09.356Z,80.22
2023-01-12T02:32:02.687Z,80.48
2023-01-12T02:34:56.370Z,80.57
2023-01-12T02:37:33.947Z,78.85
2023-01-12T02:40:24.135Z,78.65
2023-01-12T02:43:12.177Z,79.67
2023-01-12T02:45:57.417Z,80.76
2023-01-12T02:48:46.000Z,79.72
2023-01-12T02:51:25.258Z,78.65
2023-01-12T02:53:55.632Z,79.41
2023-01-12T02:56:31.621Z,79.17
2023-01-12T02:59:02.538Z,80.67
2023-01-12T03:01:30.935Z,80.88
2023-01-12T03:04:02.774Z,78.89
2023-01-12T03:07:06.581Z,78.43
2023-01-12T03:09:36.247Z,77.62
2023-01-12T03:12:14.579Z,78.99
2023-01-12T03:14:47.983Z,77.40
2023-01-12T03:17:35.821Z,76.96
2023-01-12T03:20:26.697Z,75.89
2023-01-12T03:23:01.356Z,75.56
2023-01-12T03:25:31.199Z,75.94
2023-01-12T03:28:01.756Z,77.04
2023-01-12T03:31:00.913Z,76.29
2023-01-12T03:33:27.753Z,78.31
2023-01-12T03:36:05.824Z,78.25
2023-01-12T03:39:13.983Z,75.92
2023-01-12T03:42:09.838Z,76.58
2023-01-12T03:45:00.855Z,76.63
2023-01-12T03:47:30.833Z,76.55
2023-01-12T03:50:15.523Z,76.14
2023-01-12T03:52:44.930Z,76.04
2023-01-12T03:55:16.875Z,74.65
2023-01-12T03:57:44.663Z,75.46
2023-01-12T04:00:13.104Z,74.13
2023-01-12T04:02:42.625Z,74.04
2023-01-12T04:05:10.284Z,75.11
2023-01-12T04:07:36.935Z,76.63
2023-01-12T04:10:03.772Z,73.50
2023-01-12T04:12:30.435Z,74.73
2023-01-12T04:14:57.057Z,74.70
2023-01-12T04:17:25.359Z,73.98
2023-01-12T04:19:52.430Z,73.34
2023-01-12T04:22:38.163Z,73.67
2023-01-12T04:25:06.275Z,73.69
2023-01-12T04:27:33.777Z,73.39
2023-01-12T04:30:00.459Z,74.63
2023-01-12T04:32:27.117Z,74.74
2023-01-12T04:34:55.893Z,76.12
2023-01-12T04:37:22.627Z,77.02
2023-01-12T04:39:49.305Z,76.77
2023-01-12T04:42:34.588Z,77.29
2023-01-12T04:45:01.277Z,74.59
2023-01-12T04:47:27.964Z,74.84
2023-01-12T04:49:54.555Z,73.72
2023-01-12T04:52:21.202Z,75.03
2023-01-12T04:54:47.820Z,75.08
2023-01-12T04:57:14.485Z,74.67
2023-01-12T04:59:41.095Z,75.88
2023-01-12T05:02:07.758Z,76.67
2023-01-12T05:04:34.518Z,75.98
2023-01-12T05:07:01.271Z,77.37
2023-01-12T05:09:46.378Z,75.77
2023-01-12T05:12:13.144Z,77.41
2023-01-12T05:14:44.476Z,76.89
2023-01-12T05:17:13.966Z,76.39
2023-01-12T05:19:40.611Z,75.48
2023-01-12T05:22:07.509Z,74.90
2023-01-12T05:24:34.199Z,75.59
2023-01-12T05:27:01.273Z,75.89
2023-01-12T05:29:28.496Z,74.70
2023-01-12T05:31:55.110Z,74.56
2023-01-12T05:34:21.812Z,75.12
2023-01-12T05:36:48.725Z,75.16
2023-01-12T05:39:15.737Z,74.72
2023-01-12T05:42:02.386Z,75.00
2023-01-12T05:44:29.057Z,75.23
2023-01-12T05:46:58.815Z,74.94
2023-01-12T05:49:25.537Z,74.93
2023-01-12T05:51:52.175Z,75.51
2023-01-12T05:54:18.854Z,75.08
2023-01-12T05:56:45.502Z,76.01
2023-01-12T05:59:14.371Z,74.40
2023-01-12T06:01:41.164Z,74.97
2023-01-12T06:04:10.908Z,76.64
2023-01-12T06:06:37.581Z,75.84
2023-01-12T06:09:04.700Z,76.59
2023-01-12T06:11:49.871Z,75.75
2023-01-12T06:14:16.766Z,74.80
2023-01-12T06:16:43.940Z,76.31
2023-01-12T06:19:12.758Z,75.93
2023-01-12T06:21:40.413Z,75.78
2023-01-12T06:24:07.601Z,76.85
2023-01-12T06:26:34.257Z,76.72
2023-01-12T06:29:01.113Z,76.39
2023-01-12T06:31:27.803Z,75.41
2023-01-12T06:33:54.562Z,74.90
2023-01-12T06:36:21.379Z,74.94
2023-01-12T06:38:48.057Z,75.55
2023-01-12T06:41:33.366Z,75.03
2023-01-12T06:44:00.375Z,75.12
2023-01-12T06:46:27.760Z,74.42
2023-01-12T06:48:58.374Z,72.88
2023-01-12T06:51:25.118Z,75.39
2023-01-12T06:53:51.930Z,75.52
2023-01-12T06:56:18.520Z,73.95
2023-01-12T06:58:45.445Z,74.81
2023-01-12T07:01:13.771Z,73.86
2023-01-12T07:03:42.884Z,74.18
2023-01-12T07:06:09.553Z,73.29
2023-01-12T07:08:36.613Z,73.05
2023-01-12T07:11:05.092Z,72.87
2023-01-12T07:13:32.009Z,73.44
2023-01-12T07:16:00.068Z,73.69
2023-01-12T07:18:28.030Z,74.73
2023-01-12T07:20:54.631Z,73.55
2023-01-12T07:23:21.302Z,72.39
2023-01-12T07:25:47.944Z,73.21
2023-01-12T07:28:15.013Z,71.77
2023-01-12T07:30:41.852Z,72.27
2023-01-12T07:33:10.816Z,71.42
2023-01-12T07:35:37.444Z,72.33
2023-01-12T07:38:04.505Z,74.17
2023-01-12T07:40:31.141Z,71.95
2023-01-12T07:42:59.354Z,72.05
2023-01-12T07:45:26.333Z,71.44
2023-01-12T07:47:54.920Z,71.76
2023-01-12T07:50:23.037Z,71.68
2023-01-12T07:52:49.824Z,73.02
2023-01-12T07:55:18.968Z,72.45
2023-01-12T07:57:56.802Z,72.48
2023-01-12T08:00:25.054Z,70.61
2023-01-12T08:02:53.652Z,71.21
2023-01-12T08:05:21.627Z,71.22
2023-01-12T08:07:48.841Z,71.28
2023-01-12T08:10:16.130Z,71.27
2023-01-12T08:12:42.930Z,70.46
2023-01-12T08:15:12.862Z,71.38
2023-01-12T08:18:05.760Z,71.08
2023-01-12T08:20:35.369Z,70.80
2023-01-12T08:23:13.395Z,70.42
2023-01-12T08:25:46.215Z,70.54
2023-01-12T08:28:19.286Z,70.92
2023-01-12T08:30:48.800Z,71.64
2023-01-12T08:33:16.283Z,70.80
2023-01-12T08:35:46.437Z,70.58
2023-01-12T08:38:13.641Z,70.06
2023-01-12T08:40:58.767Z,72.36
2023-01-12T08:43:43.962Z,73.08
2023-01-12T08:46:10.879Z,71.13
2023-01-12T08:48:38.448Z,71.01
2023-01-12T08:51:07.875Z,70.44
2023-01-12T08:53:35.433Z,69.20
2023-01-12T08:56:02.121Z,71.53
2023-01-12T08:58:28.778Z,69.78
2023-01-12T09:00:55.671Z,69.47
2023-01-12T09:03:22.460Z,69.62
2023-01-12T09:05:49.097Z,68.91
2023-01-12T09:08:15.772Z,70.22
2023-01-12T09:10:42.385Z,68.37
2023-01-12T09:13:10.177Z,68.05
2023-01-12T09:15:37.954Z,68.73
2023-01-12T09:18:04.631Z,69.52
2023-01-12T09:20:31.325Z,69.31
2023-01-12T09:22:57.999Z,68.67
2023-01-12T09:25:24.855Z,68.20
2023-01-12T09:27:51.503Z,69.04
2023-01-12T09:30:18.654Z,68.45
2023-01-12T09:32:45.411Z,68.42
2023-01-12T09:35:12.099Z,68.58
2023-01-12T09:37:40.496Z,68.11
2023-01-12T09:40:07.909Z,68.30
2023-01-12T09:42:58.109Z,69.04
2023-01-12T09:45:43.823Z,68.24
2023-01-12T09:48:13.591Z,68.08
2023-01-12T09:50:48.533Z,68.19
2023-01-12T09:53:20.788Z,68.95
2023-01-12T09:55:50.545Z,68.58
2023-01-12T09:58:37.425Z,68.03
2023-01-12T10:01:14.637Z,68.75
2023-01-12T10:03:44.180Z,68.36
2023-01-12T10:06:17.276Z,69.08
2023-01-12T10:08:51.868Z,69.17
2023-01-12T10:11:52.816Z,69.54
2023-01-12T10:14:28.557Z,68.75
2023-01-12T10:17:16.952Z,68.00
2023-01-12T10:19:45.915Z,68.45
2023-01-12T10:22:37.758Z,68.54
2023-01-12T10:25:25.921Z,68.68
2023-01-12T10:27:54.863Z,69.00
2023-01-12T10:30:29.121Z,68.35
2023-01-12T10:32:56.115Z,68.02
2023-01-12T10:35:24.348Z,68.27
2023-01-12T10:37:56.192Z,68.40
2023-01-12T10:40:30.359Z,67.81
2023-01-12T10:43:22.434Z,68.54
2023-01-12T10:46:12.696Z,67.38
2023-01-12T10:48:43.272Z,67.22
2023-01-12T10:51:24.135Z,67.23
2023-01-12T10:54:00.889Z,67.71
2023-01-12T10:56:40.845Z,68.12
2023-01-12T10:59:13.656Z,66.81
2023-01-12T11:02:02.179Z,66.80
2023-01-12T11:04:29.964Z,67.27
2023-01-12T11:07:00.575Z,66.85
2023-01-12T11:09:30.078Z,67.13
2023-01-12T11:12:00.149Z,67.32
2023-01-12T11:14:32.982Z,67.74
2023-01-12T11:17:13.226Z,67.60
2023-01-12T11:19:43.205Z,67.49
2023-01-12T11:22:17.884Z,66.63
2023-01-12T11:24:53.064Z,68.47
2023-01-12T11:27:32.373Z,67.65
2023-01-12T11:30:16.211Z,67.00
2023-01-12T11:33:15.519Z,67.81
2023-01-12T11:35:42.139Z,67.64
2023-01-12T11:38:25.111Z,66.68
2023-01-12T11:40:53.476Z,66.17
2023-01-12T11:43:51.401Z,66.34
2023-01-12T11:46:36.218Z,65.29
2023-01-12T11:49:12.854Z,67.09
2023-01-12T11:51:40.376Z,66.56
2023-01-12T11:54:13.659Z,64.78
2023-01-12T11:57:14.068Z,64.33
2023-01-12T11:59:57.935Z,64.27
2023-01-12T12:02:41.648Z,65.08
2023-01-12T12:05:20.659Z,64.38
2023-01-12T12:07:59.496Z,66.78
2023-01-12T12:10:32.159Z,65.38
2023-01-12T12:13:23.088Z,65.37
2023-01-12T12:16:21.349Z,67.38
2023-01-12T12:18:59.745Z,66.03
2023-01-12T12:22:01.948Z,65.72
2023-01-12T12:24:51.732Z,66.63
2023-01-12T12:27:37.202Z,67.15
2023-01-12T12:30:40.989Z,67.22
2023-01-12T12:33:43.660Z,67.16
2023-01-12T12:36:20.677Z,67.09
2023-01-12T12:39:31.238Z,68.24
2023-01-12T12:42:44.503Z,67.89
2023-01-12T12:45:17.070Z,67.80
2023-01-12T12:47:56.086Z,68.67
2023-01-12T12:50:38.569Z,68.75
2023-01-12T12:53:32.877Z,68.13
2023-01-12T12:56:04.595Z,68.47
2023-01-12T12:58:39.923Z,68.13
2023-01-12T13:01:25.015Z,68.05
2023-01-12T13:03:53.351Z,67.74
2023-01-12T13:06:31.347Z,68.59
2023-01-12T13:09:14.253Z,69.03
2023-01-12T13:12:00.097Z,68.29
2023-01-12T13:14:31.108Z,68.51
2023-01-12T13:17:21.153Z,69.06
2023-01-12T13:20:08.357Z,69.53
2023-01-12T13:22:50.491Z,69.74
2023-01-12T13:25:17.124Z,67.49
2023-01-12T13:27:47.810Z,67.81
2023-01-12T13:30:23.790Z,67.96
2023-01-12T13:33:14.798Z,68.12
2023-01-12T13:35:44.429Z,68.23
2023-01-12T13:38:32.978Z,67.79
2023-01-12T13:41:15.296Z,67.34
2023-01-12T13:43:49.789Z,67.48
2023-01-12T13:46:21.135Z,67.69
2023-01-12T13:48:53.353Z,67.83
2023-01-12T13:51:28.558Z,67.53
2023-01-12T13:54:07.329Z,67.67
2023-01-12T13:56:35.103Z,67.95
2023-01-12T13:59:04.531Z,68.05
2023-01-12T14:01:38.506Z,68.25
2023-01-12T14:04:16.379Z,69.01
2023-01-12T14:07:22.896Z,68.21
2023-01-12T14:10:14.650Z,68.99
2023-01-12T14:13:10.973Z,68.67
2023-01-12T14:16:01.257Z,68.57
2023-01-12T14:18:41.217Z,68.36
2023-01-12T14:21:37.470Z,68.41
2023-01-12T14:24:20.336Z,68.39
2023-01-12T14:26:47.151Z,68.36
2023-01-12T14:29:15.092Z,68.03
2023-01-12T14:31:48.533Z,67.44
2023-01-12T14:34:22.454Z,69.33
2023-01-12T14:36:49.319Z,68.14
2023-01-12T14:39:24.353Z,67.95
2023-01-12T14:42:12.228Z,68.39
2023-01-12T14:45:12.095Z,68.21
2023-01-12T14:47:39.694Z,68.37
2023-01-12T14:50:12.329Z,68.15
2023-01-12T14:52:40.680Z,67.90
2023-01-12T14:55:36.731Z,67.98
2023-01-12T14:58:05.394Z,68.45
2023-01-12T15:00:36.613Z,68.63
2023-01-12T15:03:17.811Z,69.83
2023-01-12T15:05:54.785Z,68.77
2023-01-12T15:08:28.149Z,68.93
2023-01-12T15:11:37.617Z,69.64
2023-01-12T15:14:07.089Z,69.20
2023-01-12T15:16:52.662Z,70.06
2023-01-12T15:19:37.866Z,68.77
2023-01-12T15:22:28.692Z,68.31
2023-01-12T15:25:14.595Z,68.99
2023-01-12T15:27:41.289Z,69.20
2023-01-12T15:30:10.741Z,68.56
2023-01-12T15:32:47.242Z,68.63
2023-01-12T15:35:26.352Z,68.72
2023-01-12T15:37:55.375Z,68.57
2023-01-12T15:40:22.755Z,69.57
2023-01-12T15:42:53.067Z,68.50
2023-01-12T15:45:35.113Z,69.91
2023-01-12T15:48:03.060Z,68.71
2023-01-12T15:50:31.297Z,69.76
2023-01-12T15:53:00.459Z,69.13
2023-01-12T15:55:27.500Z,69.60
2023-01-12T15:57:55.517Z,69.20
2023-01-12T16:00:23.971Z,70.62
2023-01-12T16:02:52.294Z,69.62
2023-01-12T16:05:22.729Z,68.65
2023-01-12T16:07:49.753Z,69.66
2023-01-12T16:10:17.156Z,70.60
2023-01-12T16:12:44.507Z,69.33
2023-01-12T16:15:18.661Z,68.96
2023-01-12T16:17:45.977Z,69.19
2023-01-12T16:20:13.695Z,68.70
2023-01-12T16:22:40.459Z,68.89
2023-01-12T16:25:07.756Z,69.28
2023-01-12T16:27:36.208Z,68.46
2023-01-12T16:30:05.899Z,68.30
2023-01-12T16:32:33.074Z,68.40
2023-01-12T16:34:59.902Z,69.02
2023-01-12T16:37:29.955Z,68.27
2023-01-12T16:39:56.670Z,68.41
2023-01-12T16:42:23.378Z,69.00
2023-01-12T16:44:50.346Z,68.86
2023-01-12T16:47:20.035Z,67.66
2023-01-12T16:49:51.242Z,68.84
2023-01-12T16:52:19.755Z,68.83
2023-01-12T16:54:46.576Z,68.79
2023-01-12T16:57:15.958Z,68.76
2023-01-12T16:59:43.276Z,69.37
2023-01-12T17:02:17.369Z,68.72
2023-01-12T17:04:45.891Z,68.49
2023-01-12T17:07:13.016Z,68.96
2023-01-12T17:09:40.566Z,68.98
2023-01-12T17:12:07.855Z,69.08
2023-01-12T17:14:36.002Z,68.87
2023-01-12T17:17:07.342Z,69.09
2023-01-12T17:19:35.950Z,69.48
2023-01-12T17:22:04.574Z,69.32
2023-01-12T17:24:33.377Z,69.41
2023-01-12T17:27:00.675Z,68.96
2023-01-12T17:29:28.589Z,69.64
2023-01-12T17:32:03.341Z,70.57
2023-01-12T17:34:31.972Z,69.12
2023-01-12T17:37:03.014Z,68.75
2023-01-12T17:39:30.848Z,69.19
2023-01-12T17:42:16.118Z,69.09
2023-01-12T17:44:43.050Z,68.68
2023-01-12T17:47:10.964Z,68.21
2023-01-12T17:49:37.871Z,68.15
2023-01-12T17:52:05.400Z,68.62
2023-01-12T17:54:32.286Z,68.54
2023-01-12T17:56:59.046Z,68.74
2023-01-12T17:59:25.908Z,68.49
2023-01-12T18:01:55.319Z,67.87
2023-01-12T18:04:22.362Z,68.08
2023-01-12T18:06:49.573Z,67.68
2023-01-12T18:09:16.579Z,67.76
2023-01-12T18:11:43.358Z,67.49
2023-01-12T18:14:10.520Z,68.26
2023-01-12T18:16:37.373Z,67.75
2023-01-12T18:19:06.934Z,67.74
2023-01-12T18:21:34.823Z,66.58
2023-01-12T18:24:02.213Z,67.80
2023-01-12T18:26:35.641Z,67.29
2023-01-12T18:29:05.112Z,67.92
2023-01-12T18:31:37.165Z,67.12
2023-01-12T18:34:05.392Z,66.50
2023-01-12T18:36:34.694Z,66.65
2023-01-12T18:39:01.723Z,66.44
2023-01-12T18:41:47.079Z,66.56
2023-01-12T18:44:13.864Z,67.03
2023-01-12T18:47:01.378Z,66.91
2023-01-12T18:49:31.310Z,67.15
2023-01-12T18:52:16.974Z,67.81
2023-01-12T18:54:45.220Z,66.17
2023-01-12T18:57:14.169Z,66.34
2023-01-12T18:59:42.059Z,67.65
2023-01-12T19:02:14.377Z,66.09
2023-01-12T19:05:01.325Z,66.69
2023-01-12T19:07:33.650Z,66.63
2023-01-12T19:10:00.746Z,66.07
2023-01-12T19:12:27.769Z,66.34
2023-01-12T19:15:12.984Z,66.61
2023-01-12T19:17:42.080Z,65.75
2023-01-12T19:20:16.032Z,66.48
2023-01-12T19:23:01.834Z,66.64
2023-01-12T19:25:47.460Z,66.06
2023-01-12T19:28:35.119Z,66.59
2023-01-12T19:31:04.636Z,66.21
2023-01-12T19:33:31.632Z,65.91
2023-01-12T19:35:59.182Z,66.20
2023-01-12T19:38:25.926Z,66.31
2023-01-12T19:40:54.573Z,66.52
2023-01-12T19:43:26.218Z,65.90
2023-01-12T19:45:59.123Z,65.59
2023-01-12T19:48:26.976Z,66.44
2023-01-12T19:50:54.237Z,66.39
2023-01-12T19:53:28.695Z,66.41
2023-01-12T19:55:55.957Z,65.97
2023-01-12T19:58:25.144Z,65.62
2023-01-12T20:00:51.983Z,65.66
2023-01-12T20:03:21.589Z,65.58
2023-01-12T20:05:51.971Z,65.60
2023-01-12T20:08:21.533Z,65.31
2023-01-12T20:10:57.883Z,65.79
2023-01-12T20:13:26.621Z,65.28
2023-01-12T20:15:55.057Z,65.38
2023-01-12T20:18:21.842Z,65.61
2023-01-12T20:20:48.595Z,65.47
2023-01-12T20:23:15.575Z,65.19
2023-01-12T20:25:43.208Z,65.11
2023-01-12T20:28:12.243Z,65.64
2023-01-12T20:30:40.920Z,65.26
2023-01-12T20:33:08.080Z,65.92
2023-01-12T20:35:35.384Z,65.32
2023-01-12T20:38:04.274Z,65.25
2023-01-12T20:40:31.147Z,65.37
2023-01-12T20:42:57.908Z,66.04
2023-01-12T20:45:24.672Z,65.68
2023-01-12T20:47:51.697Z,64.83
2023-01-12T20:50:19.115Z,65.55
2023-01-12T20:52:48.156Z,65.25
2023-01-12T20:55:15.717Z,66.05
2023-01-12T20:57:42.415Z,64.95
2023-01-12T21:00:10.379Z,64.83
2023-01-12T21:02:37.680Z,65.23
2023-01-12T21:05:04.905Z,65.50
2023-01-12T21:07:31.852Z,65.11
2023-01-12T21:09:58.513Z,66.00
2023-01-12T21:12:27.534Z,64.90
2023-01-12T21:14:55.017Z,64.78
2023-01-12T21:17:21.862Z,65.08
2023-01-12T21:19:49.696Z,64.60
2023-01-12T21:22:17.285Z,65.00
2023-01-12T21:24:45.102Z,64.63
2023-01-12T21:27:12.257Z,64.81
2023-01-12T21:29:39.061Z,64.64
2023-01-12T21:32:08.863Z,64.83
2023-01-12T21:34:35.838Z,64.58
2023-01-12T21:37:02.693Z,64.75
2023-01-12T21:39:29.559Z,64.80
2023-01-12T21:42:14.915Z,65.69
2023-01-12T21:44:41.734Z,64.96
2023-01-12T21:47:08.453Z,65.32
2023-01-12T21:49:35.355Z,65.98
2023-01-12T21:52:02.005Z,66.11
2023-01-12T21:54:28.999Z,65.35
2023-01-12T21:56:55.677Z,64.09
2023-01-12T21:59:22.344Z,64.99
2023-01-12T22:01:49.100Z,65.49
2023-01-12T22:04:15.891Z,65.13
2023-01-12T22:06:42.534Z,64.57
2023-01-12T22:09:09.260Z,64.19
2023-01-12T22:11:35.946Z,64.81
2023-01-12T22:14:02.593Z,64.24
2023-01-12T22:16:29.357Z,64.59
2023-01-12T22:18:56.153Z,64.03
2023-01-12T22:21:23.009Z,64.05
2023-01-12T22:23:49.801Z,64.47
2023-01-12T22:26:17.725Z,63.76
2023-01-12T22:28:47.631Z,64.93
2023-01-12T22:31:17.280Z,64.69
2023-01-12T22:33:46.433Z,64.35
2023-01-12T22:36:13.576Z,64.53
2023-01-12T22:38:40.213Z,64.55
2023-01-12T22:41:08.112Z,64.49
2023-01-12T22:43:40.647Z,64.65
2023-01-12T22:46:15.902Z,65.12
2023-01-12T22:48:42.667Z,65.21
2023-01-12T22:51:09.787Z,65.27
2023-01-12T22:53:36.641Z,65.14
2023-01-12T22:56:04.388Z,65.92
2023-01-12T22:58:31.457Z,66.47
2023-01-12T23:01:09.366Z,65.70
2023-01-12T23:03:37.464Z,65.91
2023-01-12T23:06:05.517Z,65.96
2023-01-12T23:08:32.390Z,66.41
2023-01-12T23:11:07.168Z,66.27
2023-01-12T23:13:34.950Z,65.68
2023-01-12T23:16:04.948Z,66.29
2023-01-12T23:18:33.221Z,65.80
2023-01-12T23:21:25.103Z,66.12
2023-01-12T23:24:00.942Z,66.11
2023-01-12T23:26:32.729Z,65.52
2023-01-12T23:29:01.224Z,65.83
2023-01-12T23:31:30.496Z,65.33
2023-01-12T23:33:57.522Z,66.03
2023-01-12T23:36:26.803Z,65.93
2023-01-12T23:38:54.741Z,65.68
2023-01-12T23:41:23.532Z,65.43
2023-01-12T23:43:52.187Z,66.28
2023-01-12T23:46:23.507Z,66.17
2023-01-12T23:48:52.667Z,66.68
2023-01-12T23:51:19.727Z,65.71
2023-01-12T23:53:46.900Z,65.52
2023-01-12T23:56:22.624Z,65.94
2023-01-12T23:58:49.501Z,65.88
